Time;durP1;ratioP1;P1;durP2;ratioP2;P2;SDS_P1;SDS_P2;PMS_P1;PMS_P2;Temp;Humidity;BMP_temperature;BMP_pressure;BME280_temperature;BME280_humidity;BME280_pressure;Samples;Min_cycle;Max_cycle;Signal;HPM_P1;HPM_P2
2022/09/01 00:02:27;;;;;;;1.80;1.55;;;18.60;91.30;;;;;;5048000;28;20025;-82
2022/09/01 00:04:57;;;;;;;2.70;1.65;;;18.60;91.20;;;;;;5033863;28;20017;-81
2022/09/01 00:07:30;;;;;;;1.88;1.23;;;18.50;91.70;;;;;;5037744;28;20024;-82
2022/09/01 00:09:57;;;;;;;2.13;1.83;;;18.60;91.40;;;;;;5035652;28;20561;-83
2022/09/01 00:12:24;;;;;;;1.48;1.25;;;18.50;91.40;;;;;;5032541;28;20032;-82
2022/09/01 00:14:51;;;;;;;2.25;1.88;;;18.60;91.30;;;;;;5025166;28;20030;-81
2022/09/01 00:17:16;;;;;;;3.58;1.90;;;18.50;91.30;;;;;;5042607;28;20049;-82
2022/09/01 00:19:43;;;;;;;2.33;1.98;;;18.40;91.40;;;;;;5032442;28;20021;-79
2022/09/01 00:22:09;;;;;;;2.13;1.80;;;18.40;91.70;;;;;;5026910;28;20052;-83
2022/09/01 00:24:35;;;;;;;1.60;1.50;;;18.40;91.50;;;;;;5031324;28;20514;-79
2022/09/01 00:27:04;;;;;;;3.22;2.22;;;18.40;91.40;;;;;;5032286;28;20485;-81
2022/09/01 00:29:30;;;;;;;3.75;1.85;;;18.50;91.30;;;;;;5029356;28;20026;-82
2022/09/01 00:31:55;;;;;;;1.83;1.35;;;18.50;91.30;;;;;;5028229;28;20060;-81
2022/09/01 00:34:22;;;;;;;2.90;1.30;;;18.50;91.20;;;;;;5025883;28;20446;-82
2022/09/01 00:36:47;;;;;;;2.03;1.77;;;18.50;91.30;;;;;;5023189;28;20032;-82
2022/09/01 00:39:13;;;;;;;2.70;1.70;;;18.50;91.00;;;;;;5025767;28;20161;-82
2022/09/01 00:41:43;;;;;;;2.30;1.55;;;18.40;91.10;;;;;;5030324;28;20025;-82
2022/09/01 00:44:13;;;;;;;2.30;1.60;;;18.40;91.20;;;;;;5042374;28;20475;-82
2022/09/01 00:46:48;;;;;;;2.42;2.10;;;18.30;91.20;;;;;;5017835;28;20040;-83
2022/09/01 00:49:19;;;;;;;1.77;1.67;;;18.30;91.20;;;;;;5040337;28;20040;-81
2022/09/01 00:51:49;;;;;;;3.05;1.95;;;18.30;91.30;;;;;;5037137;28;20025;-82
2022/09/01 00:54:24;;;;;;;1.38;1.27;;;18.30;91.30;;;;;;5037216;28;20494;-82
2022/09/01 00:56:51;;;;;;;1.95;1.85;;;18.30;91.40;;;;;;5031512;28;20028;-81
2022/09/01 00:59:21;;;;;;;1.88;1.48;;;18.30;91.50;;;;;;5043765;28;20033;-82
2022/09/01 01:01:47;;;;;;;2.70;1.40;;;18.30;91.30;;;;;;5034553;28;20014;-81
2022/09/01 01:04:16;;;;;;;3.30;1.70;;;18.30;91.50;;;;;;5047775;28;20035;-83
2022/09/01 01:06:57;;;;;;;5.75;1.60;;;18.30;91.60;;;;;;5024899;28;20092;-83
2022/09/01 01:09:25;;;;;;;1.90;1.48;;;18.20;91.60;;;;;;5049515;28;20038;-82
2022/09/01 01:11:52;;;;;;;2.90;2.03;;;18.20;91.50;;;;;;5029255;28;20120;-82
2022/09/01 01:14:19;;;;;;;2.85;1.65;;;18.20;91.80;;;;;;5025357;28;20497;-82
2022/09/01 01:16:50;;;;;;;2.08;1.70;;;18.20;91.90;;;;;;5036435;28;20025;-82
2022/09/01 01:23:08;;;;;;;1.75;1.50;;;18.20;91.70;;;;;;5035920;28;20549;-83
2022/09/01 01:25:43;;;;;;;1.45;1.27;;;18.10;91.80;;;;;;5043774;28;20047;-83
2022/09/01 01:28:14;;;;;;;2.17;1.58;;;18.10;91.80;;;;;;5031635;28;20022;-82
2022/09/01 01:30:43;;;;;;;2.22;1.50;;;18.10;91.80;;;;;;5053422;28;20120;-82
2022/09/01 01:33:09;;;;;;;1.73;1.10;;;18.10;91.70;;;;;;5032988;28;20030;-82
2022/09/01 01:35:36;;;;;;;4.78;1.88;;;18.10;91.80;;;;;;5032536;28;20025;-82
2022/09/01 01:38:06;;;;;;;5.35;1.45;;;18.10;91.80;;;;;;5051570;28;20128;-81
2022/09/01 01:40:32;;;;;;;1.95;1.70;;;17.90;91.60;;;;;;5043496;28;20037;-82
2022/09/01 01:43:00;;;;;;;2.08;1.63;;;18.00;91.80;;;;;;5029356;28;20025;-82
2022/09/01 01:45:27;;;;;;;3.30;1.50;;;18.00;91.80;;;;;;5035625;28;20439;-83
2022/09/01 01:47:55;;;;;;;2.15;1.83;;;18.00;91.70;;;;;;5037219;28;20022;-83
2022/09/01 01:50:28;;;;;;;5.45;1.73;;;18.00;91.80;;;;;;5029385;28;20022;-82
2022/09/01 01:52:56;;;;;;;2.10;1.52;;;17.90;91.50;;;;;;5029548;28;20566;-82
2022/09/01 01:55:26;;;;;;;1.25;1.10;;;18.00;91.80;;;;;;5045996;28;20379;-82
2022/09/01 01:57:52;;;;;;;2.67;1.40;;;17.90;91.90;;;;;;5043699;28;20036;-81
2022/09/01 02:00:21;;;;;;;2.08;1.50;;;17.90;91.70;;;;;;5047155;28;20422;-83
2022/09/01 02:02:51;;;;;;;3.80;1.80;;;17.90;91.80;;;;;;5045622;28;20051;-82
2022/09/01 02:05:27;;;;;;;3.00;1.52;;;17.90;91.90;;;;;;5042211;28;20030;-81
2022/09/01 02:08:03;;;;;;;3.53;1.55;;;17.90;91.80;;;;;;5037534;28;20024;-81
2022/09/01 02:10:42;;;;;;;2.08;1.85;;;17.90;92.10;;;;;;5041977;28;20040;-80
2022/09/01 02:13:15;;;;;;;2.15;1.63;;;17.90;92.00;;;;;;5039749;28;20029;-81
2022/09/01 02:15:45;;;;;;;2.10;1.50;;;17.90;92.10;;;;;;5028764;28;20389;-81
2022/09/01 02:18:15;;;;;;;2.33;1.45;;;17.80;92.10;;;;;;5034367;28;20021;-81
2022/09/01 02:20:42;;;;;;;1.52;1.10;;;17.90;92.00;;;;;;5035248;28;20075;-82
2022/09/01 02:23:10;;;;;;;1.48;1.20;;;17.90;92.00;;;;;;5032199;28;20025;-80
2022/09/01 02:25:42;;;;;;;1.33;1.23;;;17.90;91.90;;;;;;5027975;28;20025;-82
2022/09/01 02:28:14;;;;;;;1.73;1.60;;;17.90;91.90;;;;;;5050893;28;20021;-80
2022/09/01 02:30:56;;;;;;;2.85;1.60;;;17.80;91.90;;;;;;5021984;28;20060;-80
2022/09/01 02:33:24;;;;;;;3.03;1.83;;;17.80;91.80;;;;;;5039565;28;20033;-82
2022/09/01 02:35:59;;;;;;;1.98;1.52;;;17.80;91.80;;;;;;5038132;28;20437;-82
2022/09/01 02:38:28;;;;;;;2.00;1.52;;;17.70;91.80;;;;;;5033513;28;20030;-81
2022/09/01 02:40:58;;;;;;;3.00;1.50;;;17.70;92.00;;;;;;5032287;28;20038;-82
2022/09/01 02:43:27;;;;;;;1.70;1.52;;;17.80;91.80;;;;;;5030775;28;20030;-80
2022/09/01 02:45:58;;;;;;;2.83;1.70;;;17.70;92.10;;;;;;5030226;28;20113;-82
2022/09/01 02:48:37;;;;;;;2.20;1.40;;;17.70;92.00;;;;;;5037594;28;20071;-82
2022/09/01 02:51:06;;;;;;;3.33;2.20;;;17.70;92.10;;;;;;5039904;28;20049;-83
2022/09/01 02:53:34;;;;;;;2.70;1.80;;;17.60;92.40;;;;;;5030536;28;20060;-79
2022/09/01 02:56:01;;;;;;;4.63;1.92;;;17.60;92.40;;;;;;5031955;28;20038;-81
2022/09/01 02:58:32;;;;;;;2.10;1.83;;;17.60;92.30;;;;;;5032740;28;20029;-82
2022/09/01 03:00:58;;;;;;;1.85;1.50;;;17.70;92.30;;;;;;5035358;28;20112;-82
2022/09/01 03:03:25;;;;;;;2.65;1.70;;;17.70;92.30;;;;;;5023868;28;20033;-82
2022/09/01 03:05:54;;;;;;;4.00;1.88;;;17.70;92.20;;;;;;5022717;28;20049;-80
2022/09/01 03:08:21;;;;;;;3.75;2.08;;;17.60;92.40;;;;;;5032303;28;20025;-82
2022/09/01 03:10:47;;;;;;;3.33;1.65;;;17.70;92.40;;;;;;5032188;28;20021;-83
2022/09/01 03:13:16;;;;;;;1.63;1.33;;;17.40;92.30;;;;;;5036818;28;20031;-82
2022/09/01 03:15:43;;;;;;;2.17;1.63;;;17.40;92.40;;;;;;5031237;28;20025;-82
2022/09/01 03:18:11;;;;;;;2.08;1.55;;;17.20;92.60;;;;;;5034836;28;20068;-81
2022/09/01 03:20:42;;;;;;;2.45;1.42;;;17.20;92.70;;;;;;5035402;28;20013;-80
2022/09/01 03:23:13;;;;;;;3.20;1.10;;;17.30;92.50;;;;;;5030370;28;20033;-82
2022/09/01 03:25:43;;;;;;;1.67;1.20;;;17.40;92.50;;;;;;5025916;28;20071;-82
2022/09/01 03:28:11;;;;;;;3.53;1.60;;;17.40;92.30;;;;;;5047433;28;20056;-82
2022/09/01 03:30:42;;;;;;;1.38;1.17;;;17.40;92.20;;;;;;5030029;28;20036;-83
2022/09/01 03:33:08;;;;;;;4.20;1.42;;;17.40;92.20;;;;;;5026649;28;20026;-82
2022/09/01 03:35:35;;;;;;;6.13;1.60;;;17.40;92.20;;;;;;5036755;28;20108;-81
2022/09/01 03:38:02;;;;;;;1.58;1.48;;;17.30;92.30;;;;;;5045187;28;20492;-82
2022/09/01 03:40:31;;;;;;;4.18;1.70;;;17.30;92.40;;;;;;5037601;28;20025;-83
2022/09/01 03:43:04;;;;;;;3.50;1.50;;;17.30;92.40;;;;;;5049211;28;20021;-82
2022/09/01 03:45:37;;;;;;;2.45;1.65;;;17.30;92.40;;;;;;5030006;28;20034;-83
2022/09/01 03:48:08;;;;;;;1.63;1.50;;;17.40;92.40;;;;;;5044938;28;20026;-81
2022/09/01 03:50:44;;;;;;;5.65;1.67;;;17.30;92.30;;;;;;5049622;28;20067;-82
2022/09/01 03:53:16;;;;;;;2.55;1.40;;;17.30;92.30;;;;;;5033104;28;20117;-81
2022/09/01 03:55:44;;;;;;;3.35;1.48;;;17.20;92.40;;;;;;5027256;28;20022;-83
2022/09/01 03:58:13;;;;;;;1.50;1.40;;;17.00;92.80;;;;;;5026074;28;20029;-82
2022/09/01 04:00:42;;;;;;;2.78;1.30;;;17.00;92.70;;;;;;5032393;28;20022;-83
2022/09/01 04:03:11;;;;;;;3.17;1.92;;;16.90;92.90;;;;;;5032345;28;20029;-80
2022/09/01 04:05:41;;;;;;;3.25;1.60;;;16.90;92.80;;;;;;5031705;28;20026;-83
2022/09/01 04:08:10;;;;;;;4.05;1.67;;;16.90;92.90;;;;;;5037675;28;20021;-83
2022/09/01 04:10:48;;;;;;;3.60;1.40;;;16.80;92.70;;;;;;5034207;28;20025;-83
2022/09/01 04:13:16;;;;;;;1.20;1.02;;;16.80;93.10;;;;;;5046978;28;20035;-83
2022/09/01 04:15:42;;;;;;;2.97;2.20;;;16.80;93.00;;;;;;5023675;28;20037;-83
2022/09/01 04:18:19;;;;;;;3.58;1.50;;;16.60;93.30;;;;;;5032093;28;20026;-83
2022/09/01 04:20:48;;;;;;;1.42;1.33;;;16.70;93.50;;;;;;5033765;28;20082;-83
2022/09/01 04:23:28;;;;;;;2.65;1.80;;;16.70;93.50;;;;;;5031920;28;20027;-83
2022/09/01 04:26:07;;;;;;;2.60;1.80;;;16.70;93.50;;;;;;5030253;28;20112;-83
2022/09/01 04:28:36;;;;;;;3.88;1.70;;;16.70;93.30;;;;;;5032029;28;20081;-80
2022/09/01 04:31:06;;;;;;;4.93;1.80;;;16.60;93.40;;;;;;5032408;28;20036;-80
2022/09/01 04:33:38;;;;;;;2.03;1.30;;;16.40;93.60;;;;;;5026088;28;20034;-81
2022/09/01 04:36:12;;;;;;;2.28;1.70;;;16.40;93.80;;;;;;5020938;28;20173;-82
2022/09/01 04:38:38;;;;;;;3.15;1.55;;;16.50;93.80;;;;;;5043725;28;20108;-82
2022/09/01 04:41:08;;;;;;;3.85;1.80;;;16.60;93.70;;;;;;5031450;28;20064;-81
2022/09/01 04:43:34;;;;;;;1.92;1.20;;;16.60;93.50;;;;;;5023992;28;20060;-81
2022/09/01 04:46:02;;;;;;;3.20;1.40;;;16.60;93.60;;;;;;5028224;28;20075;-82
2022/09/01 04:48:28;;;;;;;3.45;1.60;;;16.50;93.70;;;;;;5036879;28;20025;-83
2022/09/01 04:50:55;;;;;;;2.58;1.65;;;16.50;93.90;;;;;;5020091;28;20442;-82
2022/09/01 04:53:22;;;;;;;5.10;1.60;;;16.40;94.00;;;;;;5036742;28;20033;-81
2022/09/01 04:55:48;;;;;;;4.32;2.05;;;16.40;94.00;;;;;;5026655;28;20022;-82
2022/09/01 04:58:16;;;;;;;6.03;2.08;;;16.40;94.00;;;;;;5035727;28;20063;-83
2022/09/01 05:00:47;;;;;;;4.22;1.58;;;16.40;94.20;;;;;;5036937;28;20021;-83
2022/09/01 05:03:13;;;;;;;2.45;1.63;;;16.40;94.20;;;;;;5025856;28;20034;-83
2022/09/01 05:05:42;;;;;;;2.13;1.92;;;16.40;94.10;;;;;;5035661;28;20026;-82
2022/09/01 05:08:12;;;;;;;5.32;2.08;;;16.40;94.20;;;;;;5021913;28;20394;-81
2022/09/01 05:10:44;;;;;;;3.58;1.88;;;16.30;94.40;;;;;;5029014;28;20034;-83
2022/09/01 05:13:12;;;;;;;5.32;1.92;;;16.20;94.50;;;;;;5041421;28;20025;-81
2022/09/01 05:15:45;;;;;;;5.88;1.73;;;16.20;94.70;;;;;;5027477;28;20028;-81
2022/09/01 05:18:15;;;;;;;4.18;1.65;;;16.10;94.80;;;;;;5027936;28;20018;-79
2022/09/01 05:20:42;;;;;;;2.15;1.60;;;16.00;94.80;;;;;;5028289;28;20026;-82
2022/09/01 05:23:11;;;;;;;1.88;1.60;;;16.00;94.90;;;;;;5029765;28;20024;-82
2022/09/01 05:25:42;;;;;;;1.52;1.23;;;16.00;95.00;;;;;;5033845;28;20083;-81
2022/09/01 05:28:11;;;;;;;1.65;1.38;;;16.20;94.50;;;;;;5035173;28;20116;-82
2022/09/01 05:30:40;;;;;;;2.00;1.17;;;16.20;94.50;;;;;;5020718;28;20109;-82
2022/09/01 05:33:15;;;;;;;4.22;1.67;;;16.20;94.40;;;;;;5033446;28;20021;-83
2022/09/01 05:35:50;;;;;;;8.23;1.60;;;16.20;94.40;;;;;;5030933;28;20658;-81
2022/09/01 05:38:17;;;;;;;2.75;1.30;;;16.20;94.50;;;;;;5044300;28;20432;-81
2022/09/01 05:40:53;;;;;;;2.72;1.38;;;16.30;94.40;;;;;;5029689;28;20022;-83
2022/09/01 05:43:20;;;;;;;1.58;1.20;;;16.30;94.40;;;;;;5028257;28;20036;-81
2022/09/01 05:45:46;;;;;;;2.13;1.48;;;16.30;94.40;;;;;;5028362;28;20033;-83
2022/09/01 05:48:14;;;;;;;1.67;1.30;;;16.30;94.30;;;;;;5033774;28;20028;-82
2022/09/01 05:50:44;;;;;;;3.08;1.50;;;16.40;94.40;;;;;;5027622;28;20072;-82
2022/09/01 05:53:15;;;;;;;2.40;1.20;;;16.30;94.20;;;;;;5029135;28;20029;-83
2022/09/01 05:55:47;;;;;;;2.28;1.27;;;16.40;93.90;;;;;;5031483;28;20037;-83
2022/09/01 05:58:15;;;;;;;2.05;1.35;;;16.50;93.90;;;;;;5031373;28;20083;-81
2022/09/01 06:00:42;;;;;;;3.42;1.77;;;16.70;93.60;;;;;;5026183;28;20037;-81
2022/09/01 06:03:10;;;;;;;3.35;1.40;;;16.60;93.90;;;;;;5026925;28;20022;-82
2022/09/01 06:05:36;;;;;;;1.58;1.15;;;16.60;93.80;;;;;;5038233;28;20057;-82
2022/09/01 06:08:06;;;;;;;3.95;1.65;;;16.70;93.80;;;;;;5030901;28;20041;-81
2022/09/01 06:10:35;;;;;;;3.28;1.70;;;16.70;93.60;;;;;;5040201;28;20032;-83
2022/09/01 06:13:02;;;;;;;5.32;1.50;;;16.60;92.90;;;;;;5032520;28;20030;-80
2022/09/01 06:15:29;;;;;;;2.72;1.55;;;16.70;93.30;;;;;;5044256;28;20094;-81
2022/09/01 06:17:56;;;;;;;1.88;1.65;;;16.80;93.40;;;;;;5036124;28;20033;-81
2022/09/01 06:20:22;;;;;;;2.50;1.35;;;16.70;93.20;;;;;;5034987;28;20116;-81
2022/09/01 06:22:48;;;;;;;4.45;1.27;;;16.90;93.30;;;;;;5032846;28;20468;-82
2022/09/01 06:25:17;;;;;;;1.80;1.13;;;17.00;93.20;;;;;;5034168;28;20552;-79
2022/09/01 06:27:43;;;;;;;2.35;1.50;;;17.00;93.10;;;;;;5035885;28;20040;-82
2022/09/01 06:30:16;;;;;;;2.30;1.55;;;17.20;93.10;;;;;;5041123;28;20060;-82
2022/09/01 06:32:43;;;;;;;2.45;1.20;;;17.30;93.00;;;;;;5048509;28;20026;-82
2022/09/01 06:35:14;;;;;;;2.42;1.67;;;17.30;93.10;;;;;;5039558;28;20107;-81
2022/09/01 06:37:44;;;;;;;2.58;1.60;;;17.40;92.80;;;;;;5029721;28;20021;-82
2022/09/01 06:40:16;;;;;;;4.78;1.30;;;17.50;92.30;;;;;;5034484;28;20552;-82
2022/09/01 06:42:46;;;;;;;2.88;1.65;;;17.50;92.40;;;;;;5023558;28;20021;-81
2022/09/01 06:45:16;;;;;;;3.17;1.63;;;17.70;92.20;;;;;;5031832;28;20026;-80
2022/09/01 06:47:43;;;;;;;3.30;1.17;;;17.70;92.00;;;;;;5040871;28;20493;-80
2022/09/01 06:50:13;;;;;;;7.03;1.70;;;17.70;92.00;;;;;;5043659;28;20109;-80
2022/09/01 06:52:43;;;;;;;2.35;1.20;;;17.70;91.40;;;;;;5035825;28;20389;-80
2022/09/01 06:55:14;;;;;;;4.43;1.50;;;17.70;91.50;;;;;;5037595;28;20034;-79
2022/09/01 06:57:51;;;;;;;3.97;1.23;;;17.90;91.70;;;;;;5031841;28;20033;-79
2022/09/01 07:00:18;;;;;;;2.42;1.27;;;18.00;91.30;;;;;;5019282;28;20137;-79
2022/09/01 07:02:52;;;;;;;2.40;1.20;;;18.20;91.50;;;;;;5042655;28;20025;-79
2022/09/01 07:05:18;;;;;;;2.97;1.52;;;18.40;90.70;;;;;;5040343;28;20033;-80
2022/09/01 07:07:54;;;;;;;2.63;1.20;;;18.40;90.90;;;;;;5028514;28;20518;-80
2022/09/01 07:10:26;;;;;;;3.58;1.40;;;18.50;91.00;;;;;;5044060;28;20033;-80
2022/09/01 07:12:55;;;;;;;4.10;1.63;;;18.50;91.10;;;;;;5031120;28;20496;-79
2022/09/01 07:15:21;;;;;;;1.58;1.30;;;18.60;90.90;;;;;;5039446;28;20036;-79
2022/09/01 07:17:54;;;;;;;2.42;1.35;;;18.60;90.80;;;;;;5032311;28;20025;-80
2022/09/01 07:20:26;;;;;;;3.72;1.45;;;18.50;90.20;;;;;;5043352;28;20052;-80
2022/09/01 07:22:53;;;;;;;1.55;1.10;;;18.50;90.50;;;;;;5019994;28;20022;-79
2022/09/01 07:25:19;;;;;;;2.65;1.30;;;18.60;90.70;;;;;;5046565;28;20104;-80
2022/09/01 07:27:49;;;;;;;6.53;2.28;;;18.70;90.60;;;;;;5037270;28;20029;-80
2022/09/01 07:30:17;;;;;;;1.30;1.13;;;18.80;90.90;;;;;;5047384;28;20033;-80
2022/09/01 07:32:44;;;;;;;2.55;1.48;;;18.90;90.80;;;;;;5033631;28;20026;-80
2022/09/01 07:35:15;;;;;;;4.20;1.45;;;19.00;90.60;;;;;;5028592;28;20018;-80
2022/09/01 07:37:41;;;;;;;2.42;1.23;;;19.00;90.60;;;;;;5038888;28;20020;-80
2022/09/01 07:40:10;;;;;;;1.55;1.20;;;19.20;90.70;;;;;;5041519;28;20029;-79
2022/09/01 07:42:39;;;;;;;2.50;1.50;;;19.20;90.70;;;;;;5021236;28;20056;-80
2022/09/01 07:45:07;;;;;;;4.88;2.17;;;19.30;90.10;;;;;;5034815;28;20021;-79
2022/09/01 07:47:35;;;;;;;3.03;1.17;;;19.30;88.90;;;;;;5031407;28;20079;-79
2022/09/01 07:50:07;;;;;;;0.88;0.88;;;19.40;89.60;;;;;;5023828;28;20038;-80
2022/09/01 07:52:41;;;;;;;2.58;1.27;;;19.40;88.90;;;;;;5036748;28;20037;-79
2022/09/01 07:55:13;;;;;;;1.95;1.30;;;19.40;89.20;;;;;;5047058;28;20454;-80
2022/09/01 07:57:41;;;;;;;3.60;1.20;;;19.50;89.20;;;;;;5035645;28;20021;-80
2022/09/01 08:00:10;;;;;;;1.75;1.45;;;19.50;88.80;;;;;;5030038;28;20093;-80
2022/09/01 08:02:39;;;;;;;2.25;1.35;;;19.50;88.70;;;;;;4984406;28;20104;-79
2022/09/01 08:05:07;;;;;;;2.33;1.00;;;19.50;87.90;;;;;;5005516;28;20077;-80
2022/09/01 08:07:34;;;;;;;5.32;1.88;;;19.60;86.30;;;;;;5013677;28;20470;-79
2022/09/01 08:10:00;;;;;;;2.00;1.13;;;19.60;87.40;;;;;;5013619;28;20038;-79
2022/09/01 08:12:25;;;;;;;1.80;1.20;;;19.70;87.70;;;;;;5015472;28;20237;-80
2022/09/01 08:14:52;;;;;;;4.47;1.38;;;19.70;87.30;;;;;;5010298;28;20026;-79
2022/09/01 08:17:19;;;;;;;3.88;1.10;;;19.70;86.80;;;;;;5021118;28;20390;-79
2022/09/01 08:19:45;;;;;;;2.00;1.30;;;19.70;87.30;;;;;;5026471;28;20033;-79
2022/09/01 08:22:13;;;;;;;1.90;1.08;;;19.70;86.90;;;;;;5012307;28;20058;-78
2022/09/01 08:24:39;;;;;;;1.77;1.10;;;19.70;86.90;;;;;;5012239;28;20026;-80
2022/09/01 08:27:05;;;;;;;2.30;1.08;;;19.80;87.20;;;;;;5016734;28;20053;-79
2022/09/01 08:29:31;;;;;;;3.65;1.30;;;19.70;86.50;;;;;;5028860;28;20038;-79
2022/09/01 08:31:58;;;;;;;2.45;1.23;;;19.70;85.80;;;;;;5009994;28;20538;-80
2022/09/01 08:34:24;;;;;;;1.42;1.20;;;19.70;86.10;;;;;;5019572;28;20502;-78
2022/09/01 08:36:53;;;;;;;1.95;1.10;;;19.80;87.00;;;;;;5014071;28;20033;-80
2022/09/01 08:39:19;;;;;;;1.83;1.00;;;19.90;87.00;;;;;;5012929;28;20394;-80
2022/09/01 08:42:11;;;;;;;1.60;1.30;;;19.90;85.50;;;;;;5011319;28;20029;-80
2022/09/01 08:44:58;;;;;;;1.48;0.95;;;19.90;86.30;;;;;;5001088;28;20406;-79
2022/09/01 08:47:23;;;;;;;1.42;1.25;;;20.10;86.10;;;;;;5032046;28;20033;-79
2022/09/01 08:49:50;;;;;;;2.05;1.50;;;20.10;83.60;;;;;;5013883;28;20076;-80
2022/09/01 08:52:19;;;;;;;2.05;1.20;;;20.10;84.70;;;;;;5024733;28;20022;-79
2022/09/01 08:54:49;;;;;;;1.95;1.20;;;20.20;84.80;;;;;;5008998;28;20035;-80
2022/09/01 08:57:22;;;;;;;4.97;1.48;;;20.30;84.50;;;;;;5011114;28;20041;-80
2022/09/01 08:59:48;;;;;;;1.63;1.20;;;20.30;85.00;;;;;;5012079;28;20386;-80
2022/09/01 09:02:26;;;;;;;1.38;1.00;;;20.30;84.60;;;;;;5021692;28;20506;-80
2022/09/01 09:05:06;;;;;;;1.33;1.20;;;20.30;84.90;;;;;;4989072;28;20045;-80
2022/09/01 09:07:58;;;;;;;1.98;1.30;;;20.30;83.00;;;;;;5016258;28;20052;-80
2022/09/01 09:10:36;;;;;;;2.22;1.10;;;20.30;83.80;;;;;;5010207;28;20034;-80
2022/09/01 09:13:16;;;;;;;1.85;1.05;;;20.30;83.60;;;;;;5020275;28;20404;-80
2022/09/01 09:15:50;;;;;;;4.55;1.13;;;20.40;84.40;;;;;;5009933;28;20025;-79
2022/09/01 09:18:26;;;;;;;4.43;1.55;;;20.40;82.80;;;;;;5019228;28;20022;-81
2022/09/01 09:20:53;;;;;;;2.25;1.30;;;20.40;83.70;;;;;;5020787;28;20025;-81
2022/09/01 09:23:35;;;;;;;4.35;1.67;;;20.50;83.10;;;;;;5010056;28;20026;-80
2022/09/01 09:26:01;;;;;;;1.35;1.05;;;20.50;83.50;;;;;;5026577;28;20030;-80
2022/09/01 09:28:26;;;;;;;1.20;1.10;;;20.60;83.80;;;;;;5013167;28;20041;-79
2022/09/01 09:31:31;;;;;;;1.25;1.13;;;20.60;83.30;;;;;;5019960;28;20022;-80
2022/09/01 09:33:57;;;;;;;3.40;1.02;;;20.70;82.60;;;;;;5015504;28;20108;-79
2022/09/01 09:36:31;;;;;;;1.90;1.38;;;20.80;83.10;;;;;;5023124;28;20025;-80
2022/09/01 09:39:15;;;;;;;4.18;1.55;;;20.80;82.60;;;;;;5009987;28;20034;-80
2022/09/01 09:41:42;;;;;;;1.33;1.15;;;20.90;83.30;;;;;;5020834;28;20026;-79
2022/09/01 09:44:30;;;;;;;3.40;1.27;;;20.90;82.90;;;;;;5022041;28;20053;-79
2022/09/01 09:46:56;;;;;;;1.45;1.33;;;21.10;81.50;;;;;;5013447;28;20041;-78
2022/09/01 09:49:32;;;;;;;4.35;1.17;;;21.10;82.10;;;;;;5016153;28;20030;-81
2022/09/01 09:52:00;;;;;;;1.52;1.27;;;21.10;80.60;;;;;;5034653;28;20037;-79
2022/09/01 09:54:32;;;;;;;2.13;1.10;;;21.20;81.40;;;;;;5016825;28;20577;-79
2022/09/01 09:57:16;;;;;;;1.40;1.10;;;21.30;81.00;;;;;;5026670;28;20029;-80
2022/09/01 09:59:54;;;;;;;2.95;1.35;;;21.40;80.30;;;;;;5022274;28;20391;-79
2022/09/01 10:02:30;;;;;;;1.42;1.17;;;21.40;80.50;;;;;;5021735;28;20025;-79
2022/09/01 10:04:58;;;;;;;2.17;1.38;;;21.60;79.70;;;;;;5018807;28;20534;-81
2022/09/01 10:07:34;;;;;;;1.83;1.00;;;21.60;79.40;;;;;;5019815;28;20034;-79
2022/09/01 10:10:04;;;;;;;2.20;1.60;;;21.70;81.10;;;;;;5015161;28;20049;-80
2022/09/01 10:12:31;;;;;;;1.45;0.90;;;21.70;79.10;;;;;;5013493;28;20041;-78
2022/09/01 10:15:21;;;;;;;1.45;1.10;;;21.60;78.10;;;;;;5023151;28;20026;-79
2022/09/01 10:17:50;;;;;;;2.53;1.48;;;21.50;79.00;;;;;;5015925;28;20041;-79
2022/09/01 10:20:26;;;;;;;2.25;1.35;;;21.60;79.20;;;;;;5016170;28;20483;-78
2022/09/01 10:22:53;;;;;;;2.08;1.33;;;21.60;79.70;;;;;;5012065;28;20125;-80
2022/09/01 10:25:23;;;;;;;2.17;1.70;;;21.60;79.60;;;;;;5017684;28;20748;-78
2022/09/01 10:28:23;;;;;;;1.88;1.70;;;21.60;80.40;;;;;;5013217;28;20030;-79
2022/09/01 10:30:52;;;;;;;2.15;1.27;;;21.60;79.90;;;;;;5009223;28;20611;-79
2022/09/01 10:33:20;;;;;;;1.98;1.45;;;21.70;79.50;;;;;;5015430;28;20028;-78
2022/09/01 10:35:49;;;;;;;4.00;1.52;;;21.70;79.80;;;;;;5015655;28;20025;-78
2022/09/01 10:38:28;;;;;;;5.07;1.60;;;21.60;79.70;;;;;;5013575;28;20041;-79
2022/09/01 10:41:08;;;;;;;0.95;0.90;;;21.50;78.40;;;;;;5041714;28;20021;-79
2022/09/01 10:43:43;;;;;;;2.88;1.50;;;21.60;77.70;;;;;;5038051;28;20049;-79
2022/09/01 10:46:18;;;;;;;2.88;1.70;;;21.70;78.00;;;;;;5033029;28;20088;-79
2022/09/01 10:48:49;;;;;;;1.33;1.10;;;21.80;78.00;;;;;;5050120;28;20029;-79
2022/09/01 10:51:15;;;;;;;1.75;1.38;;;22.00;78.20;;;;;;5057378;28;20071;-79
2022/09/01 10:53:45;;;;;;;2.22;1.30;;;22.10;77.80;;;;;;5033158;28;20116;-80
2022/09/01 10:56:23;;;;;;;1.70;1.50;;;22.20;76.90;;;;;;5049599;28;20029;-80
2022/09/01 10:59:27;;;;;;;1.27;1.02;;;22.30;78.10;;;;;;5039613;28;20022;-80
2022/09/01 11:01:53;;;;;;;;;;;22.50;77.70;;;;;;5033162;28;20022;-81
2022/09/01 11:04:42;;;;;;;2.75;1.27;;;22.40;77.90;;;;;;5029310;28;20784;-80
2022/09/01 11:07:17;;;;;;;1.67;1.42;;;22.20;77.80;;;;;;5032757;28;20029;-81
2022/09/01 11:10:09;;;;;;;3.05;1.42;;;22.20;78.90;;;;;;5042178;28;20049;-80
2022/09/01 11:13:05;;;;;;;2.13;1.60;;;22.10;80.00;;;;;;5043018;28;20451;-79
2022/09/01 11:15:39;;;;;;;2.95;1.50;;;22.10;79.60;;;;;;5037016;28;20040;-82
2022/09/01 11:18:26;;;;;;;1.67;1.45;;;22.00;79.00;;;;;;5033770;28;20045;-80
2022/09/01 11:20:52;;;;;;;2.30;1.75;;;21.90;79.20;;;;;;5036531;28;20816;-79
2022/09/01 11:23:29;;;;;;;3.92;1.88;;;21.80;79.20;;;;;;5056382;28;20070;-78
2022/09/01 11:26:02;;;;;;;3.60;1.33;;;22.00;78.80;;;;;;5029526;28;20033;-79
2022/09/01 11:28:30;;;;;;;1.70;1.50;;;22.00;79.10;;;;;;5035293;28;20030;-81
2022/09/01 11:31:05;;;;;;;3.17;1.60;;;22.20;78.10;;;;;;5035954;28;20108;-80
2022/09/01 11:33:58;;;;;;;2.00;1.50;;;22.20;79.40;;;;;;5045671;28;20029;-81
2022/09/01 11:36:35;;;;;;;1.98;1.52;;;22.30;78.90;;;;;;5036394;28;20025;-80
2022/09/01 11:39:21;;;;;;;4.90;2.00;;;22.20;78.00;;;;;;5035784;28;20039;-81
2022/09/01 11:42:15;;;;;;;2.72;1.92;;;22.20;78.80;;;;;;5033506;28;20053;-80
2022/09/01 11:44:44;;;;;;;2.90;1.80;;;22.30;79.00;;;;;;5028639;28;20029;-78
2022/09/01 11:47:18;;;;;;;2.08;1.70;;;22.30;77.30;;;;;;5027875;28;20037;-80
2022/09/01 11:50:06;;;;;;;3.17;1.40;;;22.30;77.40;;;;;;5031535;28;20164;-79
2022/09/01 11:52:35;;;;;;;2.00;1.73;;;22.30;77.50;;;;;;5033347;28;20033;-80
2022/09/01 11:55:05;;;;;;;1.63;1.52;;;22.40;77.50;;;;;;5030525;28;20518;-80
2022/09/01 11:57:34;;;;;;;2.25;1.70;;;22.40;77.90;;;;;;5033362;28;20075;-78
2022/09/01 12:00:06;;;;;;;3.33;1.45;;;22.50;77.70;;;;;;5031698;28;20108;-81
2022/09/01 12:02:35;;;;;;;3.75;1.65;;;22.60;78.60;;;;;;5002814;28;20038;-82
2022/09/01 12:05:23;;;;;;;2.75;1.98;;;22.50;77.80;;;;;;5045737;28;20026;-80
2022/09/01 12:07:49;;;;;;;2.38;1.65;;;22.50;77.60;;;;;;5028118;28;20021;-80
2022/09/01 12:10:29;;;;;;;3.78;1.70;;;22.50;78.00;;;;;;5040678;28;20426;-78
2022/09/01 12:13:14;;;;;;;1.77;1.60;;;22.50;77.90;;;;;;5026951;28;20029;-80
2022/09/01 12:15:41;;;;;;;2.45;1.88;;;22.50;79.20;;;;;;5038754;28;20036;-79
2022/09/01 12:18:29;;;;;;;3.17;1.60;;;22.60;79.20;;;;;;5042313;28;20049;-81
2022/09/01 12:20:58;;;;;;;2.97;1.80;;;22.50;78.50;;;;;;5024771;28;20155;-80
2022/09/01 12:23:50;;;;;;;2.28;1.90;;;22.50;78.10;;;;;;5038275;28;20029;-82
2022/09/01 12:26:24;;;;;;;3.80;1.77;;;22.40;78.60;;;;;;5035564;28;20045;-79
2022/09/01 12:28:52;;;;;;;2.20;2.00;;;22.40;79.10;;;;;;5046530;28;20043;-79
2022/09/01 12:31:23;;;;;;;2.08;1.83;;;22.30;78.70;;;;;;5034981;28;20583;-79
2022/09/01 12:33:51;;;;;;;2.83;2.08;;;22.30;79.50;;;;;;5036093;28;20029;-80
2022/09/01 12:36:29;;;;;;;2.65;1.70;;;22.20;80.00;;;;;;5034166;28;20055;-80
2022/09/01 12:39:16;;;;;;;3.88;1.70;;;22.20;79.50;;;;;;5045831;28;20025;-79
2022/09/01 12:41:45;;;;;;;2.28;1.70;;;22.30;78.70;;;;;;5041731;28;20426;-79
2022/09/01 12:44:32;;;;;;;2.53;1.52;;;22.50;78.00;;;;;;5037349;28;20036;-80
2022/09/01 12:47:10;;;;;;;2.75;1.80;;;22.70;76.60;;;;;;5030225;28;20032;-78
2022/09/01 12:49:43;;;;;;;2.97;2.10;;;22.80;76.60;;;;;;5031351;28;20030;-78
2022/09/01 12:52:19;;;;;;;3.63;1.60;;;23.00;76.70;;;;;;5025981;28;20048;-79
2022/09/01 12:54:51;;;;;;;2.28;1.85;;;23.00;76.30;;;;;;5028052;28;20504;-79
2022/09/01 12:57:51;;;;;;;2.88;1.88;;;23.10;77.00;;;;;;5042466;28;20120;-78
2022/09/01 13:00:22;;;;;;;2.08;1.60;;;23.10;76.50;;;;;;5040188;28;20083;-78
2022/09/01 13:02:54;;;;;;;2.83;1.80;;;23.00;76.20;;;;;;5025193;28;20056;-80
2022/09/01 13:05:23;;;;;;;3.58;2.00;;;22.90;77.30;;;;;;5033270;28;20029;-79
2022/09/01 13:07:51;;;;;;;3.92;1.67;;;22.80;77.40;;;;;;5044107;28;20500;-79
2022/09/01 13:10:17;;;;;;;4.25;2.05;;;22.80;77.00;;;;;;5046125;28;20500;-81
2022/09/01 13:12:44;;;;;;;10.13;2.05;;;22.80;77.90;;;;;;5061573;28;20026;-79
2022/09/01 13:15:11;;;;;;;2.85;1.73;;;22.70;78.10;;;;;;5045294;28;20546;-80